Forside
METAR-TAF:

METAR-TAF

Lufthavne :

Bukhara, Usbekistan

Breddekreds: 39-46-30N, længdekreds: 064-29-00E, højde: 229 m

Aktuelle vejr

Denne rapport blev lavet for 26 minutter siden, kl. 14:00 UTC
Vind 6 kt fra nord
Temperatur 37°C
Fugtighed 22%
Tryk 999 hPa
Sigt 10 km eller mere
ingen skyer under 1500m og ingen cumulonimbus

METAR: UTSB 201400Z 35006KT CAVOK 37/12 Q0999 R01/CLRD70 NOSIG

Tid: 19:26 (14:26 UTC)

Vejrudsigter

Denne rapport blev lavet for 3 timer og 26 minutter siden, kl. 11:00 UTC
Foreløbig gælder fra 20 på 12 UTC til 21 på 12 UTC
Vind 3 kt fra varierende retninger
Sigt: 7000 m
Midlertidig
fra 20 på 12 UTC til 20 på 23 UTC
Vind 12 kt fra nord med vindstød på up til 22 kt

TAF: UTSB 201100Z 2012/2112 VRB03KT 7000 NSC TX42/2111Z TEMPO 2012/2023 36012G22KT

Vejrobservationer og prognoser fra mere end 4000 lufthavne (METAR og TAF).

De gule og røde prikker repræsenterer de meteorologiske stationer.

Flyt musen over at se navnet på stationen.

Så klik over at se vejr observationer og prognoser.

At skifte det kort: Klik på de grønne knapper med et sort kors for at zoome ind; på den grønne knap med en bindestreg for at zoome ud; eller på de grønne pile for tilstødende kort.


METAR-TAF: